Time;durP1;ratioP1;P1;durP2;ratioP2;P2;SDS_P1;SDS_P2;PMS_P1;PMS_P2;Temp;Humidity;BMP_temperature;BMP_pressure;BME280_temperature;BME280_humidity;BME280_pressure;Samples;Min_cycle;Max_cycle;Signal;HPM_P1;HPM_P2
2024/03/06 00:02:19;;;;;;;114.07;66.72;;;;;;;;;;5070610;28;20078;-78
2024/03/06 00:04:45;;;;;;;68.15;41.13;;;;;;;;;;5071636;28;20032;-78
2024/03/06 00:07:11;;;;;;;67.55;42.03;;;;;;;;;;5070641;28;20020;-78
2024/03/06 00:09:37;;;;;;;62.67;41.15;;;;;;;;;;5071299;28;20369;-77
2024/03/06 00:12:04;;;;;;;61.42;39.72;;;;;;;;;;5070291;28;20024;-76
2024/03/06 00:14:30;;;;;;;59.58;39.80;;;;;;;;;;5070284;28;20078;-76
2024/03/06 00:16:56;;;;;;;60.83;41.05;;;;;;;;;;5070558;28;20013;-76
2024/03/06 00:19:23;;;;;;;63.88;41.00;;;;;;;;;;5070419;28;20455;-77
2024/03/06 00:21:49;;;;;;;63.50;41.95;;;;;;;;;;5071681;28;20020;-77
2024/03/06 00:24:15;;;;;;;67.50;42.03;;;;;;;;;;5071669;28;20067;-78
2024/03/06 00:26:45;;;;;;;63.75;42.17;;;;;;;;;;5070124;28;20021;-76
2024/03/06 00:29:29;;;;;;;69.93;44.42;;;;;;;;;;5072139;28;20024;-78
2024/03/06 00:31:55;;;;;;;68.78;42.65;;;;;;;;;;5075105;28;20028;-78
2024/03/06 00:34:21;;;;;;;68.95;42.08;;;;;;;;;;5073699;28;20123;-79
2024/03/06 00:36:48;;;;;;;67.28;43.20;;;;;;;;;;5073420;28;20023;-79
2024/03/06 00:39:17;;;;;;;63.92;41.03;;;;;;;;;;5075276;28;20020;-78
2024/03/06 00:41:43;;;;;;;68.28;44.72;;;;;;;;;;5073432;28;20102;-78
2024/03/06 00:44:09;;;;;;;68.13;43.90;;;;;;;;;;5073536;28;20179;-78
2024/03/06 00:46:35;;;;;;;68.32;41.63;;;;;;;;;;5073558;28;20396;-77
2024/03/06 00:49:01;;;;;;;59.97;41.25;;;;;;;;;;5073977;28;20032;-77
2024/03/06 00:51:27;;;;;;;71.05;45.95;;;;;;;;;;5073600;28;20183;-77
2024/03/06 00:53:53;;;;;;;73.45;43.97;;;;;;;;;;5073321;28;20056;-77
2024/03/06 00:56:19;;;;;;;75.63;45.83;;;;;;;;;;5075249;28;20549;-77
2024/03/06 00:58:45;;;;;;;69.50;45.00;;;;;;;;;;5073240;28;20195;-77
2024/03/06 01:01:11;;;;;;;64.03;43.40;;;;;;;;;;5075325;28;20032;-77
2024/03/06 01:03:40;;;;;;;67.65;44.53;;;;;;;;;;5074257;28;20438;-78
2024/03/06 01:06:06;;;;;;;67.82;44.05;;;;;;;;;;5075336;28;20025;-78
2024/03/06 01:08:32;;;;;;;66.97;42.70;;;;;;;;;;5074807;28;20364;-78
2024/03/06 01:10:58;;;;;;;69.40;44.25;;;;;;;;;;5073405;28;20081;-78
2024/03/06 01:13:24;;;;;;;73.32;46.58;;;;;;;;;;5073455;28;20029;-78
2024/03/06 01:15:50;;;;;;;69.10;42.53;;;;;;;;;;5073223;28;20274;-78
2024/03/06 01:18:16;;;;;;;64.82;42.25;;;;;;;;;;5073461;28;20033;-77
2024/03/06 01:20:43;;;;;;;63.78;42.33;;;;;;;;;;5073096;28;20044;-76
2024/03/06 01:23:09;;;;;;;66.03;43.20;;;;;;;;;;5074277;28;20028;-76
2024/03/06 01:25:35;;;;;;;63.22;42.47;;;;;;;;;;5073666;28;20037;-76
2024/03/06 01:28:01;;;;;;;65.68;42.63;;;;;;;;;;5073019;28;20353;-76
2024/03/06 01:30:27;;;;;;;69.85;43.42;;;;;;;;;;5073092;28;20053;-76
2024/03/06 01:32:53;;;;;;;67.47;43.42;;;;;;;;;;5074219;28;20372;-77
2024/03/06 01:35:19;;;;;;;71.25;44.63;;;;;;;;;;5056066;28;20056;-76
2024/03/06 01:37:45;;;;;;;68.13;43.33;;;;;;;;;;5072285;28;20025;-76
2024/03/06 01:40:12;;;;;;;69.47;44.72;;;;;;;;;;5072552;28;20017;-76
2024/03/06 01:42:38;;;;;;;62.65;41.50;;;;;;;;;;5071436;28;20024;-77
2024/03/06 01:45:04;;;;;;;67.75;42.50;;;;;;;;;;5073647;28;20032;-76
2024/03/06 01:47:30;;;;;;;66.93;42.88;;;;;;;;;;5072748;28;20029;-76
2024/03/06 01:49:57;;;;;;;69.15;43.92;;;;;;;;;;5073444;28;20036;-76
2024/03/06 01:52:23;;;;;;;71.30;45.15;;;;;;;;;;5072584;28;20070;-76
2024/03/06 01:54:50;;;;;;;70.55;43.95;;;;;;;;;;5072289;28;20086;-76
2024/03/06 01:57:17;;;;;;;80.38;49.55;;;;;;;;;;5072513;28;20039;-77
2024/03/06 01:59:43;;;;;;;77.05;46.88;;;;;;;;;;5072278;28;20048;-77
2024/03/06 02:02:11;;;;;;;77.93;49.20;;;;;;;;;;5072388;28;20028;-77
2024/03/06 02:04:37;;;;;;;72.47;46.25;;;;;;;;;;5071612;28;20035;-75
2024/03/06 02:07:04;;;;;;;73.07;46.17;;;;;;;;;;5072245;28;20059;-77
2024/03/06 02:09:30;;;;;;;74.22;45.38;;;;;;;;;;5072195;28;20021;-77
2024/03/06 02:11:56;;;;;;;74.68;47.17;;;;;;;;;;5071932;28;20028;-77
2024/03/06 02:14:22;;;;;;;68.88;45.60;;;;;;;;;;5073801;28;20028;-77
2024/03/06 02:16:48;;;;;;;74.55;47.05;;;;;;;;;;5071903;28;20025;-77
2024/03/06 02:19:14;;;;;;;70.75;46.03;;;;;;;;;;5073401;28;20059;-77
2024/03/06 02:21:40;;;;;;;70.10;45.47;;;;;;;;;;5072818;28;20013;-77
2024/03/06 02:24:08;;;;;;;75.00;48.25;;;;;;;;;;5071829;28;20028;-76
2024/03/06 02:26:34;;;;;;;80.63;47.40;;;;;;;;;;5071883;28;20025;-77
2024/03/06 02:29:00;;;;;;;77.75;48.05;;;;;;;;;;5071798;28;20021;-77
2024/03/06 02:31:26;;;;;;;82.63;49.78;;;;;;;;;;5073224;28;20043;-78
2024/03/06 02:33:52;;;;;;;74.32;45.30;;;;;;;;;;5071502;28;20027;-78
2024/03/06 02:36:19;;;;;;;70.45;46.00;;;;;;;;;;5071622;28;20029;-77
2024/03/06 02:38:45;;;;;;;81.88;49.05;;;;;;;;;;5071348;28;20024;-77
2024/03/06 02:41:13;;;;;;;83.47;50.17;;;;;;;;;;5071629;28;20350;-78
2024/03/06 02:43:39;;;;;;;80.03;48.85;;;;;;;;;;5072617;28;20384;-77
2024/03/06 02:46:05;;;;;;;84.25;51.28;;;;;;;;;;5072619;28;20052;-78
2024/03/06 02:48:32;;;;;;;76.65;49.13;;;;;;;;;;5071615;28;20029;-77
2024/03/06 02:50:58;;;;;;;79.18;48.78;;;;;;;;;;5072351;28;20025;-78
2024/03/06 02:53:26;;;;;;;78.15;49.25;;;;;;;;;;5071152;28;20024;-77
2024/03/06 02:55:52;;;;;;;80.72;49.33;;;;;;;;;;5072472;28;20021;-77
2024/03/06 02:58:18;;;;;;;79.47;47.45;;;;;;;;;;5073136;28;20503;-76
2024/03/06 03:00:44;;;;;;;75.30;49.25;;;;;;;;;;5071217;28;20480;-76
2024/03/06 03:03:14;;;;;;;93.78;55.35;;;;;;;;;;5072823;28;20025;-77
2024/03/06 03:05:40;;;;;;;93.25;54.63;;;;;;;;;;5072744;28;20074;-76
2024/03/06 03:08:06;;;;;;;85.32;50.20;;;;;;;;;;5071279;28;20463;-77
2024/03/06 03:10:34;;;;;;;92.63;53.65;;;;;;;;;;5071488;28;20202;-77
2024/03/06 03:13:00;;;;;;;89.25;52.08;;;;;;;;;;5071122;28;20045;-77
2024/03/06 03:15:26;;;;;;;81.07;51.47;;;;;;;;;;5071587;28;20025;-76
2024/03/06 03:17:52;;;;;;;84.13;50.58;;;;;;;;;;5071810;28;20056;-76
2024/03/06 03:20:18;;;;;;;92.03;54.60;;;;;;;;;;5072026;28;20044;-76
2024/03/06 03:22:44;;;;;;;86.85;52.95;;;;;;;;;;5072706;28;20130;-78
2024/03/06 03:25:11;;;;;;;88.78;51.60;;;;;;;;;;5072310;28;20028;-78
2024/03/06 03:27:38;;;;;;;88.03;51.28;;;;;;;;;;5070927;28;20020;-77
2024/03/06 03:30:05;;;;;;;90.93;52.10;;;;;;;;;;5070727;28;20032;-76
2024/03/06 03:32:31;;;;;;;88.50;49.78;;;;;;;;;;5070914;28;20464;-77
2024/03/06 03:34:57;;;;;;;82.00;51.35;;;;;;;;;;5070725;28;20033;-77
2024/03/06 03:37:23;;;;;;;87.45;49.00;;;;;;;;;;5070777;28;20020;-77
2024/03/06 03:39:49;;;;;;;86.07;50.55;;;;;;;;;;5070619;28;20036;-77
2024/03/06 03:42:15;;;;;;;80.47;47.72;;;;;;;;;;5072188;28;20027;-77
2024/03/06 03:44:41;;;;;;;83.25;48.75;;;;;;;;;;5070635;28;20086;-77
2024/03/06 03:47:08;;;;;;;86.45;51.42;;;;;;;;;;5070732;28;20056;-78
2024/03/06 03:49:34;;;;;;;87.28;48.83;;;;;;;;;;5070715;28;20193;-76
2024/03/06 03:52:00;;;;;;;86.35;48.97;;;;;;;;;;5070466;28;20028;-77
2024/03/06 03:54:26;;;;;;;87.47;46.70;;;;;;;;;;5070659;28;20032;-77
2024/03/06 03:56:52;;;;;;;81.53;45.70;;;;;;;;;;5070457;28;20025;-77
2024/03/06 03:59:18;;;;;;;83.97;50.15;;;;;;;;;;5071978;28;20024;-77
2024/03/06 04:01:48;;;;;;;78.28;47.47;;;;;;;;;;5071751;28;20033;-76
2024/03/06 04:04:15;;;;;;;87.70;49.90;;;;;;;;;;5072513;28;20060;-77
2024/03/06 04:06:41;;;;;;;95.65;52.30;;;;;;;;;;5074672;28;20024;-77
2024/03/06 04:09:09;;;;;;;94.93;53.22;;;;;;;;;;5074301;28;20023;-77
2024/03/06 04:11:36;;;;;;;92.95;51.72;;;;;;;;;;5076012;28;20036;-77
2024/03/06 04:14:03;;;;;;;82.85;49.13;;;;;;;;;;5075564;28;20032;-76
2024/03/06 04:16:29;;;;;;;85.68;50.53;;;;;;;;;;5075636;28;20060;-76
2024/03/06 04:18:55;;;;;;;89.28;50.97;;;;;;;;;;5075286;28;20068;-76
2024/03/06 04:21:22;;;;;;;85.43;49.90;;;;;;;;;;5074294;28;20381;-75
2024/03/06 04:23:48;;;;;;;90.88;51.42;;;;;;;;;;5073890;28;20438;-75
2024/03/06 04:26:14;;;;;;;89.07;52.53;;;;;;;;;;5075203;28;20025;-75
2024/03/06 04:28:40;;;;;;;88.35;49.65;;;;;;;;;;5074152;28;20029;-75
2024/03/06 04:31:06;;;;;;;89.47;51.25;;;;;;;;;;5073962;28;20025;-75
2024/03/06 04:33:32;;;;;;;93.03;54.95;;;;;;;;;;5075328;28;20028;-75
2024/03/06 04:35:58;;;;;;;89.00;52.13;;;;;;;;;;5073766;28;20078;-76
2024/03/06 04:38:25;;;;;;;87.43;49.60;;;;;;;;;;5073893;28;20028;-75
2024/03/06 04:40:51;;;;;;;96.07;53.47;;;;;;;;;;5073741;28;20450;-75
2024/03/06 04:43:17;;;;;;;83.35;49.92;;;;;;;;;;5073845;28;20025;-75
2024/03/06 04:45:43;;;;;;;85.07;47.88;;;;;;;;;;5073720;28;20118;-74
2024/03/06 04:48:09;;;;;;;90.75;51.40;;;;;;;;;;5073579;28;20118;-76
2024/03/06 04:50:35;;;;;;;90.22;49.67;;;;;;;;;;5073825;28;20498;-77
2024/03/06 04:53:01;;;;;;;108.05;57.53;;;;;;;;;;5073565;28;20025;-78
2024/03/06 04:55:27;;;;;;;105.45;56.38;;;;;;;;;;5073919;28;20029;-77
2024/03/06 04:57:53;;;;;;;105.53;59.25;;;;;;;;;;5074165;28;20020;-76
2024/03/06 05:00:19;;;;;;;91.45;53.63;;;;;;;;;;5073721;28;20347;-75
2024/03/06 05:02:45;;;;;;;102.65;55.00;;;;;;;;;;5075696;28;20027;-75
2024/03/06 05:05:11;;;;;;;97.55;54.58;;;;;;;;;;5073937;28;20101;-76
2024/03/06 05:07:38;;;;;;;106.97;57.67;;;;;;;;;;5074530;28;20048;-76
2024/03/06 05:10:04;;;;;;;111.95;60.30;;;;;;;;;;5073568;28;20484;-76
2024/03/06 05:12:30;;;;;;;105.57;57.38;;;;;;;;;;5073846;28;20464;-77
2024/03/06 05:14:56;;;;;;;117.22;60.72;;;;;;;;;;5074403;28;20029;-76
2024/03/06 05:17:23;;;;;;;109.10;58.67;;;;;;;;;;5072388;28;20029;-76
2024/03/06 05:19:49;;;;;;;119.05;62.30;;;;;;;;;;5075068;28;20037;-77
2024/03/06 05:22:16;;;;;;;133.00;68.65;;;;;;;;;;5075285;28;20040;-77
2024/03/06 05:24:45;;;;;;;117.32;64.43;;;;;;;;;;5075670;28;20039;-77
2024/03/06 05:27:16;;;;;;;122.80;62.60;;;;;;;;;;5073906;28;20033;-77
2024/03/06 05:29:42;;;;;;;118.53;64.97;;;;;;;;;;5073615;28;20445;-76
2024/03/06 05:32:08;;;;;;;127.95;66.57;;;;;;;;;;5074887;28;20439;-77
2024/03/06 05:34:34;;;;;;;142.07;64.78;;;;;;;;;;5073534;28;20062;-77
2024/03/06 05:37:01;;;;;;;191.45;70.13;;;;;;;;;;5073426;28;20024;-77
2024/03/06 05:39:27;;;;;;;371.17;81.32;;;;;;;;;;5073509;28;20021;-77
2024/03/06 05:42:00;;;;;;;200.75;69.03;;;;;;;;;;5073479;28;20029;-77
2024/03/06 05:44:26;;;;;;;170.48;68.68;;;;;;;;;;5074911;28;20060;-77
2024/03/06 05:46:52;;;;;;;262.83;74.95;;;;;;;;;;5073609;28;20025;-78
2024/03/06 05:49:18;;;;;;;145.95;66.10;;;;;;;;;;5075298;28;20462;-77
2024/03/06 05:51:45;;;;;;;132.77;64.45;;;;;;;;;;5073871;28;20111;-77
2024/03/06 05:54:11;;;;;;;129.32;65.60;;;;;;;;;;5074905;28;20077;-77
2024/03/06 05:56:38;;;;;;;118.00;62.83;;;;;;;;;;5073851;28;20040;-77
2024/03/06 05:59:07;;;;;;;102.57;58.72;;;;;;;;;;5075220;28;20021;-78
2024/03/06 06:01:34;;;;;;;99.38;58.45;;;;;;;;;;5073687;28;20024;-76
2024/03/06 06:04:00;;;;;;;115.30;60.35;;;;;;;;;;5073437;28;20476;-77
2024/03/06 06:06:27;;;;;;;112.57;58.47;;;;;;;;;;5073605;28;20025;-77
2024/03/06 06:08:53;;;;;;;114.00;60.90;;;;;;;;;;5072908;28;20025;-77
2024/03/06 06:11:19;;;;;;;108.20;59.47;;;;;;;;;;5073283;28;20120;-77
2024/03/06 06:13:45;;;;;;;102.07;57.65;;;;;;;;;;5072900;28;20450;-77
2024/03/06 06:16:11;;;;;;;110.05;60.22;;;;;;;;;;5072677;28;20036;-77
2024/03/06 06:18:37;;;;;;;282.20;70.40;;;;;;;;;;5073006;28;20036;-77
2024/03/06 06:21:07;;;;;;;178.90;63.45;;;;;;;;;;5071842;28;20029;-78
2024/03/06 06:23:33;;;;;;;231.68;67.43;;;;;;;;;;5071834;28;20024;-77
2024/03/06 06:25:59;;;;;;;128.98;60.70;;;;;;;;;;5071680;28;20025;-76
2024/03/06 06:28:25;;;;;;;130.23;62.55;;;;;;;;;;5072645;28;20021;-77
2024/03/06 06:30:52;;;;;;;118.47;60.28;;;;;;;;;;5071787;28;20024;-78
2024/03/06 06:33:19;;;;;;;116.93;61.08;;;;;;;;;;5071737;28;20031;-78
2024/03/06 06:35:45;;;;;;;102.72;57.47;;;;;;;;;;5071744;28;20055;-77
2024/03/06 06:38:11;;;;;;;124.35;63.38;;;;;;;;;;5071364;28;20464;-77
2024/03/06 06:40:37;;;;;;;129.05;64.32;;;;;;;;;;5071582;28;20376;-77
2024/03/06 06:43:03;;;;;;;155.98;67.68;;;;;;;;;;5072343;28;20383;-76
2024/03/06 06:45:29;;;;;;;116.85;64.43;;;;;;;;;;5072446;28;20394;-78
2024/03/06 06:47:55;;;;;;;138.90;65.28;;;;;;;;;;5071128;28;20494;-76
2024/03/06 06:50:23;;;;;;;112.53;62.03;;;;;;;;;;5071350;28;20350;-77
2024/03/06 06:52:49;;;;;;;126.65;65.32;;;;;;;;;;5071721;28;20357;-76
2024/03/06 06:55:15;;;;;;;121.60;63.05;;;;;;;;;;5071170;28;20373;-76
2024/03/06 06:57:42;;;;;;;112.05;62.45;;;;;;;;;;5072045;28;20077;-76
2024/03/06 07:00:11;;;;;;;116.65;62.67;;;;;;;;;;5071130;28;20456;-77
2024/03/06 07:02:39;;;;;;;112.87;62.07;;;;;;;;;;5072358;28;20021;-77
2024/03/06 07:05:05;;;;;;;109.00;59.53;;;;;;;;;;5070870;28;20028;-77
2024/03/06 07:07:31;;;;;;;100.70;57.40;;;;;;;;;;5070986;28;20025;-77
2024/03/06 07:09:57;;;;;;;106.20;60.20;;;;;;;;;;5070873;28;20476;-76
2024/03/06 07:12:24;;;;;;;102.97;61.70;;;;;;;;;;5070969;28;20031;-78
2024/03/06 07:14:50;;;;;;;99.90;58.00;;;;;;;;;;5070978;28;20028;-77
2024/03/06 07:17:17;;;;;;;100.93;58.50;;;;;;;;;;5070691;28;20017;-77
2024/03/06 07:19:43;;;;;;;94.25;57.17;;;;;;;;;;5070694;28;20052;-77
2024/03/06 07:22:09;;;;;;;96.28;55.15;;;;;;;;;;5071986;28;20024;-77
2024/03/06 07:24:35;;;;;;;91.75;54.95;;;;;;;;;;5072142;28;20059;-77
2024/03/06 07:27:04;;;;;;;90.18;55.67;;;;;;;;;;5070661;28;20113;-77
2024/03/06 07:29:30;;;;;;;94.90;55.10;;;;;;;;;;5070828;28;20048;-78
2024/03/06 07:31:56;;;;;;;95.15;56.10;;;;;;;;;;5072220;28;20372;-76
2024/03/06 07:34:22;;;;;;;259.55;59.85;;;;;;;;;;5070979;28;20025;-77
2024/03/06 07:36:48;;;;;;;220.40;60.50;;;;;;;;;;5070762;28;20099;-77
2024/03/06 07:39:17;;;;;;;178.40;55.28;;;;;;;;;;5070936;28;20050;-77
2024/03/06 07:41:43;;;;;;;257.70;61.20;;;;;;;;;;5072319;28;20157;-77
2024/03/06 07:44:09;;;;;;;448.60;70.40;;;;;;;;;;5070599;28;20028;-78
2024/03/06 07:46:36;;;;;;;361.33;62.60;;;;;;;;;;5072167;28;20025;-76
2024/03/06 07:49:02;;;;;;;244.32;62.35;;;;;;;;;;5070672;28;20024;-76
2024/03/06 07:51:30;;;;;;;330.33;65.10;;;;;;;;;;5071045;28;20017;-76
2024/03/06 07:53:57;;;;;;;172.25;51.88;;;;;;;;;;5070773;28;20028;-76
2024/03/06 07:56:23;;;;;;;183.88;57.05;;;;;;;;;;5070994;28;20456;-77
2024/03/06 07:58:49;;;;;;;168.25;55.45;;;;;;;;;;5072040;28;20025;-77
2024/03/06 08:01:15;;;;;;;217.07;63.40;;;;;;;;;;5071683;28;20021;-77
2024/03/06 08:03:42;;;;;;;464.38;65.93;;;;;;;;;;5070500;28;20025;-77
2024/03/06 08:06:09;;;;;;;280.42;57.75;;;;;;;;;;5070353;28;20032;-77
2024/03/06 08:08:35;;;;;;;138.32;50.58;;;;;;;;;;5071631;28;20495;-77
2024/03/06 08:11:01;;;;;;;584.25;79.68;;;;;;;;;;5071605;28;20025;-77
2024/03/06 08:13:28;;;;;;;215.13;60.72;;;;;;;;;;5070492;28;20082;-76
2024/03/06 08:15:54;;;;;;;295.17;61.58;;;;;;;;;;5070484;28;20108;-77
2024/03/06 08:18:20;;;;;;;213.88;60.80;;;;;;;;;;5071526;28;20162;-77
2024/03/06 08:20:46;;;;;;;49.05;28.40;;;;;;;;;;5071829;28;20106;-77
2024/03/06 08:23:12;;;;;;;149.20;48.35;;;;;;;;;;5070113;28;20379;-77
2024/03/06 08:25:38;;;;;;;189.77;54.83;;;;;;;;;;5069973;28;20037;-77
2024/03/06 08:28:05;;;;;;;132.07;39.00;;;;;;;;;;5070180;28;20378;-77
2024/03/06 08:30:31;;;;;;;295.00;66.35;;;;;;;;;;5070264;28;20111;-78
2024/03/06 08:32:57;;;;;;;301.35;63.00;;;;;;;;;;5070296;28;20021;-77
2024/03/06 08:35:24;;;;;;;273.65;63.15;;;;;;;;;;5071441;28;20568;-78
2024/03/06 08:37:50;;;;;;;178.15;57.92;;;;;;;;;;5070289;28;20046;-77
2024/03/06 08:40:17;;;;;;;362.60;67.88;;;;;;;;;;5069943;28;20032;-77
2024/03/06 08:42:50;;;;;;;177.88;60.08;;;;;;;;;;5070628;28;20395;-77
2024/03/06 08:45:16;;;;;;;172.95;62.38;;;;;;;;;;5070018;28;20036;-77
2024/03/06 08:47:43;;;;;;;315.58;63.75;;;;;;;;;;5071372;28;20024;-76
2024/03/06 08:50:09;;;;;;;227.50;62.22;;;;;;;;;;5071810;28;20020;-78
2024/03/06 08:52:35;;;;;;;317.52;66.05;;;;;;;;;;5075118;28;20028;-77
2024/03/06 08:55:04;;;;;;;288.75;68.75;;;;;;;;;;5073428;28;20025;-78
2024/03/06 08:57:31;;;;;;;395.38;77.43;;;;;;;;;;5074818;28;20048;-78
2024/03/06 08:59:57;;;;;;;224.00;66.00;;;;;;;;;;5073594;28;20125;-78
2024/03/06 09:02:23;;;;;;;269.77;66.80;;;;;;;;;;5073240;28;20151;-78
2024/03/06 09:04:51;;;;;;;191.02;60.00;;;;;;;;;;5073315;28;20037;-78
2024/03/06 09:07:17;;;;;;;435.67;74.22;;;;;;;;;;5074442;28;20020;-77
2024/03/06 09:09:43;;;;;;;220.50;61.78;;;;;;;;;;5073323;28;20098;-77
2024/03/06 09:12:10;;;;;;;346.90;69.95;;;;;;;;;;5074092;28;20465;-77
2024/03/06 09:14:37;;;;;;;177.63;64.30;;;;;;;;;;5073173;28;20028;-77
2024/03/06 09:17:03;;;;;;;209.65;62.85;;;;;;;;;;5074378;28;20028;-77
2024/03/06 09:19:30;;;;;;;127.53;55.13;;;;;;;;;;5073006;28;20048;-78
2024/03/06 09:21:56;;;;;;;143.50;51.22;;;;;;;;;;5073148;28;20020;-76
2024/03/06 09:24:22;;;;;;;145.73;57.22;;;;;;;;;;5072834;28;20629;-76
2024/03/06 09:26:49;;;;;;;439.88;70.00;;;;;;;;;;5073064;28;20020;-78
2024/03/06 09:29:15;;;;;;;214.55;64.85;;;;;;;;;;5072483;28;20021;-78
2024/03/06 09:31:42;;;;;;;162.07;58.28;;;;;;;;;;5072946;28;20024;-76
2024/03/06 09:34:12;;;;;;;130.55;60.88;;;;;;;;;;5072668;28;20029;-77
2024/03/06 09:36:38;;;;;;;314.13;67.03;;;;;;;;;;5072720;28;20077;-77
2024/03/06 09:39:07;;;;;;;148.70;56.38;;;;;;;;;;5072586;28;20111;-77
2024/03/06 09:41:33;;;;;;;131.40;58.70;;;;;;;;;;5072744;28;20027;-77
2024/03/06 09:44:00;;;;;;;179.85;58.35;;;;;;;;;;5072588;28;20033;-76
2024/03/06 09:46:27;;;;;;;119.80;52.85;;;;;;;;;;5072415;28;20020;-78
2024/03/06 09:48:54;;;;;;;177.52;55.05;;;;;;;;;;5072673;28;20020;-76
2024/03/06 09:51:20;;;;;;;303.40;61.47;;;;;;;;;;5072313;28;20403;-77
2024/03/06 09:53:51;;;;;;;306.67;71.47;;;;;;;;;;5073857;28;20284;-77
2024/03/06 09:56:19;;;;;;;138.18;66.15;;;;;;;;;;5072381;28;20103;-78
2024/03/06 09:58:45;;;;;;;237.77;67.57;;;;;;;;;;5072486;28;20144;-76
2024/03/06 10:01:12;;;;;;;169.65;66.30;;;;;;;;;;5072095;28;20048;-77
2024/03/06 10:03:40;;;;;;;211.27;65.95;;;;;;;;;;5072896;28;20483;-77
2024/03/06 10:06:07;;;;;;;143.10;65.22;;;;;;;;;;5073469;28;20024;-78
2024/03/06 10:08:33;;;;;;;130.43;63.90;;;;;;;;;;5072474;28;20354;-79
2024/03/06 10:10:59;;;;;;;125.40;61.50;;;;;;;;;;5072356;28;20020;-77
2024/03/06 10:13:26;;;;;;;120.45;61.20;;;;;;;;;;5073012;28;20021;-78
2024/03/06 10:15:58;;;;;;;78.68;38.80;;;;;;;;;;5072342;28;20472;-78
2024/03/06 10:18:27;;;;;;;122.22;56.45;;;;;;;;;;5072008;28;20036;-77
2024/03/06 10:20:53;;;;;;;138.10;64.13;;;;;;;;;;5073549;28;20468;-76
2024/03/06 10:23:19;;;;;;;135.13;66.22;;;;;;;;;;5071768;28;20051;-77
2024/03/06 10:25:50;;;;;;;143.38;64.72;;;;;;;;;;5073503;28;20064;-76
2024/03/06 10:28:18;;;;;;;119.80;57.03;;;;;;;;;;5073143;28;20070;-76
2024/03/06 10:30:45;;;;;;;123.75;65.32;;;;;;;;;;5071808;28;20467;-77
2024/03/06 10:33:11;;;;;;;118.70;60.97;;;;;;;;;;5072304;28;20131;-77
2024/03/06 10:35:38;;;;;;;132.38;66.55;;;;;;;;;;5072104;28;20078;-76
2024/03/06 10:38:05;;;;;;;113.05;59.13;;;;;;;;;;5074951;28;20114;-77
2024/03/06 10:40:36;;;;;;;120.82;60.20;;;;;;;;;;5071691;28;20456;-77
2024/03/06 10:43:02;;;;;;;117.70;62.58;;;;;;;;;;5072687;28;20017;-77
2024/03/06 10:45:44;;;;;;;105.60;55.67;;;;;;;;;;5072252;28;20032;-77
2024/03/06 10:48:11;;;;;;;90.45;49.78;;;;;;;;;;5072322;28;20115;-77
2024/03/06 10:50:39;;;;;;;90.50;49.85;;;;;;;;;;5071359;28;20078;-76
2024/03/06 10:53:07;;;;;;;91.55;47.97;;;;;;;;;;5071182;28;20028;-77
2024/03/06 10:55:35;;;;;;;96.57;52.63;;;;;;;;;;5071039;28;20028;-77
2024/03/06 10:58:01;;;;;;;86.95;48.15;;;;;;;;;;5071332;28;20023;-77
2024/03/06 11:00:28;;;;;;;97.25;53.78;;;;;;;;;;5070773;28;20502;-77
2024/03/06 11:02:55;;;;;;;96.15;51.10;;;;;;;;;;5070895;28;20419;-76
2024/03/06 11:05:21;;;;;;;98.05;53.90;;;;;;;;;;5072192;28;20033;-77
2024/03/06 11:07:48;;;;;;;83.15;46.20;;;;;;;;;;5071146;28;20027;-77
2024/03/06 11:10:16;;;;;;;84.80;48.00;;;;;;;;;;5071967;28;20376;-76
2024/03/06 11:12:44;;;;;;;75.60;44.75;;;;;;;;;;5072161;28;20464;-77
2024/03/06 11:15:16;;;;;;;76.38;45.10;;;;;;;;;;5071291;28;20027;-77
2024/03/06 11:17:43;;;;;;;73.93;42.58;;;;;;;;;;5071146;28;20610;-78
2024/03/06 11:20:14;;;;;;;72.15;41.90;;;;;;;;;;5070581;28;20410;-77
2024/03/06 11:22:59;;;;;;;73.28;44.45;;;;;;;;;;5071094;28;20020;-76
2024/03/06 11:25:44;;;;;;;74.07;41.53;;;;;;;;;;5070586;28;20090;-77
2024/03/06 11:28:30;;;;;;;75.05;43.15;;;;;;;;;;5070703;28;20021;-77
2024/03/06 11:31:01;;;;;;;77.63;46.17;;;;;;;;;;5070743;28;20023;-77
2024/03/06 11:33:40;;;;;;;70.70;43.97;;;;;;;;;;5071917;28;20108;-77
2024/03/06 11:36:18;;;;;;;59.88;34.90;;;;;;;;;;5070835;28;20025;-77
2024/03/06 11:38:56;;;;;;;78.40;48.42;;;;;;;;;;5070716;28;20482;-77
2024/03/06 11:41:26;;;;;;;88.63;50.53;;;;;;;;;;5070292;28;20025;-77
2024/03/06 11:43:53;;;;;;;84.38;48.70;;;;;;;;;;5070449;28;20031;-78
2024/03/06 11:46:20;;;;;;;83.05;49.33;;;;;;;;;;5070608;28;20043;-77
2024/03/06 11:48:53;;;;;;;81.55;47.70;;;;;;;;;;5072156;28;20029;-78
2024/03/06 11:51:19;;;;;;;77.53;48.53;;;;;;;;;;5070615;28;20020;-77
2024/03/06 11:53:46;;;;;;;75.53;47.47;;;;;;;;;;5070619;28;20028;-77
2024/03/06 11:56:12;;;;;;;77.75;44.83;;;;;;;;;;5070406;28;20055;-78
2024/03/06 11:58:38;;;;;;;76.43;45.10;;;;;;;;;;5071952;28;20024;-77
2024/03/06 12:01:04;;;;;;;69.72;41.80;;;;;;;;;;5070705;28;20036;-77
2024/03/06 12:03:31;;;;;;;70.72;42.13;;;;;;;;;;5071623;28;20119;-78
2024/03/06 12:05:57;;;;;;;63.97;42.10;;;;;;;;;;5070611;28;20498;-79
2024/03/06 12:08:23;;;;;;;68.85;41.85;;;;;;;;;;5071363;28;20333;-77
2024/03/06 12:10:49;;;;;;;60.33;36.17;;;;;;;;;;5071841;28;20048;-79
2024/03/06 12:13:16;;;;;;;63.40;38.70;;;;;;;;;;5071555;28;20016;-77
2024/03/06 12:15:45;;;;;;;64.80;40.13;;;;;;;;;;5071498;28;20527;-78
2024/03/06 12:18:11;;;;;;;70.00;44.05;;;;;;;;;;5070196;28;20033;-77
2024/03/06 12:20:45;;;;;;;64.75;39.47;;;;;;;;;;5070029;28;20482;-78
2024/03/06 12:23:11;;;;;;;61.83;40.67;;;;;;;;;;5070664;28;20027;-77
2024/03/06 12:25:37;;;;;;;56.00;35.55;;;;;;;;;;5072062;28;20438;-77
2024/03/06 12:28:10;;;;;;;62.38;39.92;;;;;;;;;;5074678;28;20123;-78
2024/03/06 12:30:44;;;;;;;60.40;38.92;;;;;;;;;;5074382;28;20520;-77
2024/03/06 12:33:14;;;;;;;53.70;35.05;;;;;;;;;;5074263;28;20024;-77
2024/03/06 12:35:40;;;;;;;;;;;;;;;;;;5076203;28;20020;-77
2024/03/06 12:38:16;;;;;;;57.90;40.05;;;;;;;;;;5075789;28;19987;-78
2024/03/06 12:40:43;;;;;;;56.92;36.58;;;;;;;;;;5073884;28;20021;-78
2024/03/06 12:43:09;;;;;;;57.15;38.50;;;;;;;;;;5073932;28;20155;-79
2024/03/06 12:45:36;;;;;;;53.30;36.03;;;;;;;;;;5074822;28;20036;-79
2024/03/06 12:48:04;;;;;;;52.90;35.97;;;;;;;;;;5073709;28;20020;-79
2024/03/06 12:50:30;;;;;;;58.28;37.80;;;;;;;;;;5074878;28;20032;-78
2024/03/06 12:52:57;;;;;;;55.30;36.35;;;;;;;;;;5075071;28;20419;-78
2024/03/06 12:55:23;;;;;;;46.17;30.05;;;;;;;;;;5073335;28;20116;-78
2024/03/06 12:57:50;;;;;;;52.75;33.92;;;;;;;;;;5075230;28;20096;-78
2024/03/06 13:00:19;;;;;;;50.65;33.17;;;;;;;;;;5073327;28;20035;-78
2024/03/06 13:02:45;;;;;;;50.65;34.55;;;;;;;;;;5073598;28;20028;-77
2024/03/06 13:05:13;;;;;;;39.20;26.88;;;;;;;;;;5073311;28;20024;-78
2024/03/06 13:07:41;;;;;;;29.52;18.50;;;;;;;;;;5073206;28;20392;-78
2024/03/06 13:10:10;;;;;;;41.85;28.92;;;;;;;;;;5074378;28;20450;-78
2024/03/06 13:12:36;;;;;;;38.78;28.65;;;;;;;;;;5074257;28;20107;-78
2024/03/06 13:15:02;;;;;;;36.60;26.42;;;;;;;;;;5073004;28;20544;-78
2024/03/06 13:17:29;;;;;;;28.00;19.73;;;;;;;;;;5072865;28;20041;-78
2024/03/06 13:19:56;;;;;;;37.45;23.48;;;;;;;;;;5072615;28;20436;-78
2024/03/06 13:22:22;;;;;;;17.90;11.95;;;;;;;;;;5074218;28;20016;-77
2024/03/06 13:24:48;;;;;;;18.23;12.40;;;;;;;;;;5073101;28;20041;-78
2024/03/06 13:27:14;;;;;;;19.60;12.82;;;;;;;;;;5072883;28;20024;-78
2024/03/06 13:29:41;;;;;;;18.02;12.70;;;;;;;;;;5073126;28;20029;-79
2024/03/06 13:32:07;;;;;;;36.05;22.48;;;;;;;;;;5073077;28;20021;-79
2024/03/06 13:34:33;;;;;;;16.13;11.55;;;;;;;;;;5074095;28;20028;-79
2024/03/06 13:37:00;;;;;;;20.90;14.40;;;;;;;;;;5073164;28;20467;-79
2024/03/06 13:39:26;;;;;;;37.00;26.15;;;;;;;;;;5074026;28;20024;-78
2024/03/06 13:41:52;;;;;;;33.35;24.50;;;;;;;;;;5072822;28;20056;-78
2024/03/06 13:44:18;;;;;;;17.35;11.20;;;;;;;;;;5072537;28;20110;-78
2024/03/06 13:46:44;;;;;;;28.10;19.55;;;;;;;;;;5072694;28;20028;-78
2024/03/06 13:49:23;;;;;;;29.83;22.23;;;;;;;;;;5072842;28;20616;-78
2024/03/06 13:51:49;;;;;;;28.40;22.20;;;;;;;;;;5074079;28;20156;-79
2024/03/06 13:54:15;;;;;;;25.80;17.92;;;;;;;;;;5072623;28;20202;-79
2024/03/06 13:56:41;;;;;;;25.08;18.67;;;;;;;;;;5072666;28;20031;-79
2024/03/06 13:59:08;;;;;;;28.38;17.73;;;;;;;;;;5072636;28;20165;-79
2024/03/06 14:01:34;;;;;;;18.05;11.10;;;;;;;;;;5073510;28;20020;-78
2024/03/06 14:04:00;;;;;;;26.95;18.40;;;;;;;;;;5066111;28;20427;-80
2024/03/06 14:06:26;;;;;;;18.85;12.77;;;;;;;;;;5062372;28;20036;-77
2024/03/06 14:08:52;;;;;;;22.00;11.52;;;;;;;;;;5072480;28;20024;-79
2024/03/06 14:11:18;;;;;;;16.42;12.05;;;;;;;;;;5072219;28;20120;-80
2024/03/06 14:13:44;;;;;;;18.92;13.18;;;;;;;;;;5072247;28;20029;-80